createdAt,value
2017-03-26T00:00:32.264Z,0
2017-03-26T00:01:12.776Z,0
2017-03-26T00:01:53.314Z,0
2017-03-26T00:02:33.774Z,0
2017-03-26T00:03:14.303Z,0
2017-03-26T00:03:54.904Z,0
2017-03-26T00:04:35.423Z,0
2017-03-26T00:05:15.929Z,0
2017-03-26T00:05:56.523Z,0
2017-03-26T00:06:37.061Z,0
2017-03-26T00:07:17.591Z,0
2017-03-26T00:07:58.137Z,0
2017-03-26T00:08:38.661Z,0
2017-03-26T00:09:19.212Z,0
2017-03-26T00:09:59.792Z,0
2017-03-26T00:10:40.263Z,0
2017-03-26T00:11:20.749Z,0
2017-03-26T00:12:01.318Z,0
2017-03-26T00:12:41.836Z,0
2017-03-26T00:13:22.345Z,0
2017-03-26T00:14:02.846Z,0
2017-03-26T00:14:43.392Z,0
2017-03-26T00:15:23.961Z,0
2017-03-26T00:16:04.474Z,0
2017-03-26T00:16:44.971Z,0
2017-03-26T00:17:25.501Z,0
2017-03-26T00:18:05.981Z,0
2017-03-26T00:18:46.468Z,0
2017-03-26T00:19:26.984Z,0
2017-03-26T00:20:07.478Z,0
2017-03-26T00:20:48.022Z,0
2017-03-26T00:21:28.580Z,0
2017-03-26T00:22:09.040Z,0
2017-03-26T00:22:49.595Z,0
2017-03-26T00:23:30.122Z,0
2017-03-26T00:24:10.616Z,0
2017-03-26T00:24:51.115Z,0
2017-03-26T00:25:31.710Z,0
2017-03-26T00:26:12.261Z,0
2017-03-26T00:26:52.797Z,0
2017-03-26T00:27:33.331Z,0
2017-03-26T00:28:13.853Z,0
2017-03-26T00:28:54.379Z,0
2017-03-26T00:29:34.891Z,0
2017-03-26T00:30:15.427Z,0
2017-03-26T00:30:55.962Z,0
2017-03-26T00:31:36.494Z,0
2017-03-26T00:32:16.978Z,0
2017-03-26T00:32:57.514Z,0
2017-03-26T00:33:38.048Z,0
2017-03-26T00:34:18.557Z,0
2017-03-26T00:34:59.064Z,0
2017-03-26T00:35:39.551Z,0
2017-03-26T00:36:20.081Z,0
2017-03-26T00:37:00.551Z,0
2017-03-26T00:37:41.087Z,0
2017-03-26T00:38:21.585Z,0
2017-03-26T00:39:02.079Z,0
2017-03-26T00:39:42.623Z,0
2017-03-26T00:40:23.161Z,0
2017-03-26T00:41:03.634Z,0
2017-03-26T00:41:44.185Z,0
2017-03-26T00:42:24.653Z,0
2017-03-26T00:43:05.158Z,0
2017-03-26T00:43:45.701Z,0
2017-03-26T00:44:26.216Z,0
2017-03-26T00:45:06.770Z,0
2017-03-26T00:45:47.299Z,0
2017-03-26T00:46:28.338Z,0
2017-03-26T00:47:08.880Z,0
2017-03-26T00:47:49.376Z,0
2017-03-26T00:48:29.903Z,0
2017-03-26T00:49:10.415Z,0
2017-03-26T00:49:50.974Z,0
2017-03-26T00:50:31.560Z,0
2017-03-26T00:51:12.051Z,0
2017-03-26T00:51:52.565Z,0
2017-03-26T00:52:33.102Z,0
2017-03-26T00:53:13.640Z,0
2017-03-26T00:53:54.176Z,0
2017-03-26T00:54:34.689Z,0
2017-03-26T00:55:16.167Z,0
2017-03-26T00:55:56.667Z,0
2017-03-26T00:56:37.186Z,0
2017-03-26T00:57:17.733Z,0
2017-03-26T00:57:58.261Z,0
2017-03-26T00:58:38.776Z,0
2017-03-26T00:59:19.328Z,0
2017-03-26T00:59:59.871Z,0
2017-03-26T01:00:40.421Z,0
2017-03-26T01:01:20.942Z,0
2017-03-26T01:02:01.503Z,0
2017-03-26T01:02:42.052Z,0
2017-03-26T01:03:22.622Z,0
2017-03-26T01:04:03.168Z,0
2017-03-26T01:04:43.739Z,0
2017-03-26T01:05:24.284Z,0
2017-03-26T01:06:04.760Z,0
2017-03-26T01:06:45.263Z,0
2017-03-26T01:07:25.849Z,0
2017-03-26T01:08:06.304Z,0
2017-03-26T01:08:46.825Z,0
2017-03-26T01:09:27.356Z,0
2017-03-26T01:10:07.935Z,0
2017-03-26T01:10:48.512Z,0
2017-03-26T01:11:29.042Z,0
2017-03-26T01:12:09.581Z,0
2017-03-26T01:12:50.087Z,0
2017-03-26T01:13:30.623Z,0
2017-03-26T01:14:11.131Z,0
2017-03-26T01:14:51.653Z,0
2017-03-26T01:15:32.194Z,0
2017-03-26T01:16:12.701Z,0
2017-03-26T01:16:53.258Z,0
2017-03-26T01:17:33.778Z,0
2017-03-26T01:18:14.293Z,0
2017-03-26T01:18:54.788Z,0
2017-03-26T01:19:35.317Z,0
2017-03-26T01:20:15.856Z,0
2017-03-26T01:20:56.326Z,0
2017-03-26T01:21:36.868Z,0
2017-03-26T01:22:17.393Z,0
2017-03-26T01:24:31.624Z,0
2017-03-26T01:25:12.129Z,0
2017-03-26T01:25:52.662Z,0
2017-03-26T01:26:33.165Z,0
2017-03-26T01:27:13.695Z,0
2017-03-26T01:27:54.242Z,0
2017-03-26T01:28:34.701Z,0
2017-03-26T01:29:15.243Z,0
2017-03-26T01:29:55.778Z,0
2017-03-26T01:30:36.322Z,0
2017-03-26T01:31:16.869Z,0
2017-03-26T01:31:57.361Z,0
2017-03-26T01:32:37.851Z,0
2017-03-26T01:33:18.363Z,0
2017-03-26T01:33:58.893Z,0
2017-03-26T01:34:39.435Z,0
2017-03-26T01:35:19.963Z,0
2017-03-26T01:36:00.468Z,0
2017-03-26T01:36:40.977Z,0
2017-03-26T01:37:22.141Z,0
2017-03-26T01:38:02.694Z,0
2017-03-26T01:38:43.278Z,0
2017-03-26T01:39:23.818Z,0
2017-03-26T01:40:04.336Z,0
2017-03-26T01:40:44.837Z,0
2017-03-26T01:41:25.357Z,0
2017-03-26T01:42:05.912Z,0
2017-03-26T01:42:46.444Z,0
2017-03-26T01:43:26.927Z,0
2017-03-26T01:44:07.449Z,0
2017-03-26T01:44:47.981Z,0
2017-03-26T01:45:28.534Z,0
2017-03-26T01:46:09.101Z,0
2017-03-26T01:46:49.677Z,0
2017-03-26T01:47:30.205Z,0
2017-03-26T01:48:10.831Z,0
2017-03-26T01:48:51.366Z,0
2017-03-26T01:49:31.891Z,0
2017-03-26T01:50:12.407Z,0
2017-03-26T01:50:52.916Z,0
2017-03-26T01:51:33.449Z,0
2017-03-26T01:52:13.968Z,0
2017-03-26T01:52:54.499Z,0
2017-03-26T01:53:35.059Z,0
2017-03-26T01:54:15.610Z,0
2017-03-26T01:54:56.118Z,0
2017-03-26T01:55:36.674Z,0
2017-03-26T01:56:17.250Z,0
2017-03-26T01:56:57.798Z,0
2017-03-26T01:57:38.267Z,0
2017-03-26T01:58:18.796Z,0
2017-03-26T01:58:59.370Z,0
2017-03-26T01:59:39.893Z,0
2017-03-26T02:00:20.438Z,0
2017-03-26T02:01:00.913Z,0
2017-03-26T02:01:41.459Z,0
2017-03-26T02:02:22.007Z,0
2017-03-26T02:03:02.554Z,0
2017-03-26T02:03:43.110Z,0
2017-03-26T02:04:23.631Z,0
2017-03-26T02:05:04.101Z,0
2017-03-26T02:05:44.635Z,0
2017-03-26T02:06:25.127Z,0
2017-03-26T02:07:05.646Z,0
2017-03-26T02:07:46.157Z,0
2017-03-26T02:08:26.653Z,0
2017-03-26T02:09:07.200Z,0
2017-03-26T02:09:47.733Z,0
2017-03-26T02:10:28.302Z,0
2017-03-26T02:11:08.825Z,0
2017-03-26T02:11:49.835Z,0
2017-03-26T02:12:30.428Z,0
2017-03-26T02:13:10.999Z,0
2017-03-26T02:13:51.518Z,0
2017-03-26T02:14:32.069Z,0
2017-03-26T02:15:12.613Z,0
2017-03-26T02:15:53.145Z,0
2017-03-26T02:16:33.665Z,0
2017-03-26T02:17:14.242Z,0
2017-03-26T02:17:54.784Z,0
2017-03-26T02:18:35.329Z,0
2017-03-26T02:19:15.863Z,0
2017-03-26T02:19:56.401Z,0
2017-03-26T02:20:36.982Z,0
2017-03-26T02:21:17.531Z,0
2017-03-26T02:21:58.065Z,0
2017-03-26T02:22:38.588Z,0
2017-03-26T02:23:19.149Z,0
2017-03-26T02:24:00.369Z,0
2017-03-26T02:24:40.912Z,0
2017-03-26T02:25:21.437Z,0
2017-03-26T02:26:01.933Z,0
2017-03-26T02:26:42.460Z,0
2017-03-26T02:27:23.000Z,0
2017-03-26T02:28:03.576Z,0
2017-03-26T02:28:44.132Z,0
2017-03-26T02:29:24.654Z,0
2017-03-26T02:30:05.162Z,0
2017-03-26T02:30:45.679Z,0
2017-03-26T02:31:26.263Z,0
2017-03-26T02:32:06.830Z,0
2017-03-26T02:32:47.349Z,0
2017-03-26T02:33:27.860Z,0
2017-03-26T02:34:08.322Z,0
2017-03-26T02:34:48.851Z,0
2017-03-26T02:35:29.365Z,0
2017-03-26T02:36:09.843Z,0
2017-03-26T02:36:50.375Z,0
2017-03-26T02:37:30.908Z,0
2017-03-26T02:38:11.461Z,0
2017-03-26T02:38:51.941Z,0
2017-03-26T02:39:32.494Z,0
2017-03-26T02:40:13.024Z,0
2017-03-26T02:40:53.608Z,0
2017-03-26T02:41:34.166Z,0
2017-03-26T02:42:14.710Z,0
2017-03-26T02:42:55.187Z,0
2017-03-26T02:43:35.731Z,0
2017-03-26T02:44:16.252Z,0
2017-03-26T02:44:56.777Z,0
2017-03-26T02:45:37.331Z,0
2017-03-26T02:46:17.893Z,0
2017-03-26T02:46:58.414Z,0
2017-03-26T02:47:38.994Z,0
2017-03-26T02:48:19.511Z,0
2017-03-26T02:49:00.060Z,0
2017-03-26T02:49:40.529Z,0
2017-03-26T02:50:21.055Z,0
2017-03-26T02:51:01.567Z,0
2017-03-26T02:51:42.060Z,0
2017-03-26T02:52:22.597Z,0
2017-03-26T02:53:03.149Z,0
2017-03-26T02:53:43.696Z,0
2017-03-26T02:54:24.274Z,0
2017-03-26T02:55:04.809Z,0
2017-03-26T02:55:45.345Z,0
2017-03-26T02:56:25.886Z,0
2017-03-26T02:57:06.410Z,0
2017-03-26T02:57:46.924Z,0
2017-03-26T02:58:27.448Z,0
2017-03-26T02:59:07.965Z,0
2017-03-26T02:59:48.488Z,0
2017-03-26T03:00:28.995Z,0
2017-03-26T03:01:09.502Z,0
2017-03-26T03:01:50.028Z,0
2017-03-26T03:02:30.527Z,0
2017-03-26T03:03:11.044Z,0
2017-03-26T03:03:51.596Z,0
2017-03-26T03:04:32.121Z,0
2017-03-26T03:05:12.633Z,0
2017-03-26T03:05:53.124Z,0
2017-03-26T03:06:33.635Z,0
2017-03-26T03:07:14.164Z,0
2017-03-26T03:07:54.651Z,0
2017-03-26T03:08:35.165Z,0
2017-03-26T03:09:15.673Z,0
2017-03-26T03:09:56.199Z,0
2017-03-26T03:10:36.743Z,0
2017-03-26T03:11:17.226Z,0
2017-03-26T03:11:57.762Z,0
2017-03-26T03:12:38.253Z,0
2017-03-26T03:13:18.713Z,0
2017-03-26T03:13:59.199Z,0
2017-03-26T03:14:39.715Z,0
2017-03-26T03:15:20.247Z,0
2017-03-26T03:16:00.753Z,0
2017-03-26T03:16:41.270Z,0
2017-03-26T03:17:21.804Z,0
2017-03-26T03:18:02.323Z,0
2017-03-26T03:18:42.837Z,0
2017-03-26T03:19:23.320Z,0
2017-03-26T03:20:03.827Z,0
2017-03-26T03:20:44.330Z,0
2017-03-26T03:21:24.857Z,0
2017-03-26T03:22:05.414Z,0
2017-03-26T03:22:45.894Z,0
2017-03-26T03:23:26.401Z,0
2017-03-26T03:24:06.921Z,0
2017-03-26T03:24:47.431Z,0
2017-03-26T03:25:27.952Z,0
2017-03-26T03:26:08.482Z,0
2017-03-26T03:26:49.011Z,0
2017-03-26T03:27:29.502Z,0
2017-03-26T03:28:09.981Z,0
2017-03-26T03:28:50.575Z,0
2017-03-26T03:29:31.160Z,0
2017-03-26T03:30:11.743Z,0
2017-03-26T03:30:52.358Z,0
2017-03-26T03:31:32.977Z,0
2017-03-26T03:32:13.521Z,0
2017-03-26T03:32:54.121Z,0
2017-03-26T03:33:34.703Z,0
2017-03-26T03:34:15.325Z,0
2017-03-26T03:34:55.910Z,0
2017-03-26T03:35:36.501Z,0
2017-03-26T03:36:17.016Z,0
2017-03-26T03:36:57.606Z,0
2017-03-26T03:37:38.239Z,0
2017-03-26T03:38:18.766Z,0
2017-03-26T03:38:59.406Z,0
2017-03-26T03:39:39.809Z,0
2017-03-26T03:40:20.358Z,0
2017-03-26T03:41:00.965Z,0
2017-03-26T03:41:41.581Z,0
2017-03-26T03:42:22.127Z,0
2017-03-26T03:43:02.733Z,0
2017-03-26T03:43:43.267Z,0
2017-03-26T03:44:23.845Z,0
2017-03-26T03:45:04.505Z,0
2017-03-26T03:45:45.099Z,0
2017-03-26T03:46:25.620Z,0
2017-03-26T03:47:06.170Z,0
2017-03-26T03:47:46.756Z,0
2017-03-26T03:48:27.333Z,0
2017-03-26T03:49:07.996Z,0
2017-03-26T03:49:48.481Z,0
2017-03-26T03:50:29.054Z,0
2017-03-26T03:51:09.786Z,0
2017-03-26T03:51:50.281Z,0
2017-03-26T03:52:31.197Z,0
2017-03-26T03:53:11.717Z,0
2017-03-26T03:53:52.218Z,0
2017-03-26T03:54:32.754Z,0
2017-03-26T03:55:13.274Z,0
2017-03-26T03:55:54.391Z,0
2017-03-26T03:56:35.106Z,0
2017-03-26T03:57:15.634Z,0
2017-03-26T03:57:56.225Z,0
2017-03-26T03:58:36.801Z,0
2017-03-26T03:59:17.461Z,0
2017-03-26T03:59:58.002Z,0
2017-03-26T04:00:38.547Z,0
2017-03-26T04:01:19.119Z,0
2017-03-26T04:01:59.607Z,0
2017-03-26T04:02:40.113Z,0
2017-03-26T04:03:20.612Z,0
2017-03-26T04:04:01.217Z,0
2017-03-26T04:04:41.758Z,0
2017-03-26T04:05:22.279Z,0
2017-03-26T04:06:02.831Z,0
2017-03-26T04:06:43.382Z,0
2017-03-26T04:07:24.261Z,0
2017-03-26T04:08:04.783Z,0
2017-03-26T04:08:45.312Z,0
2017-03-26T04:09:25.817Z,0
2017-03-26T04:10:06.408Z,0
2017-03-26T04:10:46.942Z,0
2017-03-26T04:11:27.445Z,0
2017-03-26T04:12:07.990Z,0
2017-03-26T04:12:48.494Z,0
2017-03-26T04:13:29.102Z,0
2017-03-26T04:14:09.624Z,0
2017-03-26T04:14:50.166Z,0
2017-03-26T04:15:30.649Z,0
2017-03-26T04:16:11.248Z,0
2017-03-26T04:16:51.833Z,0
2017-03-26T04:17:32.382Z,0
2017-03-26T04:18:12.927Z,0
2017-03-26T04:18:53.412Z,0
2017-03-26T04:19:33.939Z,0
2017-03-26T04:20:14.470Z,0
2017-03-26T04:20:54.974Z,0
2017-03-26T04:21:35.520Z,0
2017-03-26T04:22:16.051Z,0
2017-03-26T04:22:56.638Z,0
2017-03-26T04:23:37.230Z,0
2017-03-26T04:24:17.787Z,0
2017-03-26T04:24:58.330Z,0
2017-03-26T04:25:38.843Z,0
2017-03-26T04:26:19.350Z,0
2017-03-26T04:26:59.920Z,0
2017-03-26T04:27:40.387Z,0
2017-03-26T04:28:21.158Z,0
2017-03-26T04:29:01.644Z,0
2017-03-26T04:29:42.172Z,0
2017-03-26T04:30:22.664Z,0
2017-03-26T04:31:03.219Z,0
2017-03-26T04:31:43.807Z,0
2017-03-26T04:32:24.362Z,0
2017-03-26T04:33:04.918Z,0
2017-03-26T04:33:45.445Z,0
2017-03-26T04:34:25.990Z,0
2017-03-26T04:35:06.482Z,0
2017-03-26T04:35:47.087Z,0
2017-03-26T04:36:27.575Z,0
2017-03-26T04:37:08.055Z,0
2017-03-26T04:37:48.614Z,0
2017-03-26T04:38:29.105Z,0
2017-03-26T04:39:09.598Z,0
2017-03-26T04:39:50.140Z,0
2017-03-26T04:40:30.620Z,0
2017-03-26T04:41:11.164Z,0
2017-03-26T04:41:51.692Z,0
2017-03-26T04:42:32.245Z,0
2017-03-26T04:43:12.755Z,0
2017-03-26T04:43:53.258Z,0
2017-03-26T04:44:33.771Z,0
2017-03-26T04:45:14.285Z,0
2017-03-26T04:45:54.806Z,0
2017-03-26T04:46:35.389Z,0
2017-03-26T04:47:15.877Z,0
2017-03-26T04:47:56.432Z,0
2017-03-26T04:48:36.975Z,0
2017-03-26T04:49:17.514Z,0
2017-03-26T04:49:58.056Z,0
2017-03-26T04:50:38.635Z,0
2017-03-26T04:51:19.155Z,0
2017-03-26T04:51:59.699Z,0
2017-03-26T04:52:40.264Z,0
2017-03-26T04:53:20.899Z,0
2017-03-26T04:54:01.449Z,0
2017-03-26T04:54:41.989Z,0
2017-03-26T04:55:22.565Z,4
2017-03-26T04:56:03.118Z,4
2017-03-26T04:56:43.618Z,4
2017-03-26T04:57:24.125Z,0
2017-03-26T04:58:04.740Z,0
2017-03-26T04:58:45.407Z,4
2017-03-26T04:59:26.028Z,4
2017-03-26T05:00:06.569Z,4
2017-03-26T05:00:47.150Z,8
2017-03-26T05:01:27.728Z,8
2017-03-26T05:02:08.258Z,4
2017-03-26T05:02:48.835Z,8
2017-03-26T05:03:29.398Z,8
2017-03-26T05:04:09.995Z,8
2017-03-26T05:04:50.514Z,12
2017-03-26T05:05:31.086Z,12
2017-03-26T05:06:11.665Z,16
2017-03-26T05:06:52.746Z,16
2017-03-26T05:07:33.385Z,16
2017-03-26T05:08:13.977Z,16
2017-03-26T05:08:54.513Z,20
2017-03-26T05:09:35.038Z,20
2017-03-26T05:10:15.586Z,20
2017-03-26T05:10:56.156Z,24
2017-03-26T05:11:36.698Z,28
2017-03-26T05:12:17.162Z,28
2017-03-26T05:12:57.812Z,28
2017-03-26T05:13:38.253Z,32
2017-03-26T05:14:18.866Z,36
2017-03-26T05:14:59.409Z,40
2017-03-26T05:15:40.063Z,40
2017-03-26T05:16:20.553Z,44
2017-03-26T05:17:01.193Z,48
2017-03-26T05:17:41.766Z,48
2017-03-26T05:18:22.326Z,52
2017-03-26T05:19:02.935Z,56
2017-03-26T05:19:43.501Z,60
2017-03-26T05:20:24.036Z,64
2017-03-26T05:21:04.631Z,68
2017-03-26T05:21:45.192Z,72
2017-03-26T05:22:26.789Z,76
2017-03-26T05:23:07.297Z,80
2017-03-26T05:23:47.887Z,88
2017-03-26T05:24:28.443Z,92
2017-03-26T05:25:08.946Z,100
2017-03-26T05:25:49.451Z,108
2017-03-26T05:26:30.030Z,112
2017-03-26T05:27:10.547Z,120
2017-03-26T05:27:51.058Z,128
2017-03-26T05:28:31.606Z,136
2017-03-26T05:29:12.212Z,140
2017-03-26T05:29:52.811Z,152
2017-03-26T05:30:33.312Z,160
2017-03-26T05:31:13.883Z,168
2017-03-26T05:31:54.416Z,180
2017-03-26T05:32:34.947Z,188
2017-03-26T05:33:15.467Z,204
2017-03-26T05:33:55.974Z,212
2017-03-26T05:34:36.457Z,228
2017-03-26T05:35:17.043Z,240
2017-03-26T05:35:57.631Z,248
2017-03-26T05:36:38.093Z,264
2017-03-26T05:37:18.605Z,276
2017-03-26T05:37:59.159Z,292
2017-03-26T05:38:39.785Z,304
2017-03-26T05:39:20.341Z,324
2017-03-26T05:40:00.758Z,336
2017-03-26T05:40:41.305Z,352
2017-03-26T05:41:21.882Z,368
2017-03-26T05:42:02.417Z,384
2017-03-26T05:42:42.957Z,408
2017-03-26T05:43:23.510Z,428
2017-03-26T05:44:04.066Z,444
2017-03-26T05:44:44.640Z,464
2017-03-26T05:45:25.218Z,484
2017-03-26T05:46:06.653Z,504
2017-03-26T05:46:48.324Z,524
2017-03-26T05:47:29.342Z,548
2017-03-26T05:48:09.919Z,572
2017-03-26T05:48:50.444Z,592
2017-03-26T05:49:30.971Z,612
2017-03-26T05:50:11.550Z,632
2017-03-26T05:50:52.019Z,652
2017-03-26T05:51:32.648Z,672
2017-03-26T05:52:13.244Z,692
2017-03-26T05:52:53.769Z,712
2017-03-26T05:53:34.333Z,736
2017-03-26T05:54:14.911Z,756
2017-03-26T05:54:55.478Z,780
2017-03-26T05:55:36.075Z,800
2017-03-26T05:56:16.623Z,824
2017-03-26T05:56:57.201Z,844
2017-03-26T05:57:37.694Z,864
2017-03-26T05:58:18.646Z,884
2017-03-26T05:58:59.329Z,900
2017-03-26T05:59:39.818Z,916
2017-03-26T06:00:20.292Z,936
2017-03-26T06:01:00.906Z,956
2017-03-26T06:01:41.473Z,972
2017-03-26T06:02:21.949Z,984
2017-03-26T06:03:02.569Z,1000
2017-03-26T06:03:43.130Z,1012
2017-03-26T06:04:23.593Z,1028
2017-03-26T06:05:04.165Z,1040
2017-03-26T06:05:44.792Z,1052
2017-03-26T06:06:25.340Z,1056
2017-03-26T06:07:05.831Z,1060
2017-03-26T06:07:46.373Z,1068
2017-03-26T06:08:26.987Z,1076
2017-03-26T06:09:07.530Z,1084
2017-03-26T06:09:48.050Z,1092
2017-03-26T06:10:28.653Z,1108
2017-03-26T06:11:09.165Z,1128
2017-03-26T06:11:49.647Z,1140
2017-03-26T06:12:30.240Z,1148
2017-03-26T06:13:10.767Z,1152
2017-03-26T06:13:51.282Z,1156
2017-03-26T06:14:31.794Z,1152
2017-03-26T06:15:12.380Z,1156
2017-03-26T06:15:52.861Z,1152
2017-03-26T06:16:33.400Z,1156
2017-03-26T06:17:13.995Z,1152
2017-03-26T06:17:54.581Z,1152
2017-03-26T06:18:35.193Z,1156
2017-03-26T06:19:15.759Z,1160
2017-03-26T06:19:56.304Z,1168
2017-03-26T06:20:36.912Z,1180
2017-03-26T06:21:17.447Z,1192
2017-03-26T06:21:58.056Z,1208
2017-03-26T06:22:38.552Z,1228
2017-03-26T06:23:19.101Z,1252
2017-03-26T06:23:59.622Z,1268
2017-03-26T06:24:40.241Z,1288
2017-03-26T06:25:20.696Z,1312
2017-03-26T06:26:01.243Z,1328
2017-03-26T06:26:41.798Z,1348
2017-03-26T06:27:22.295Z,1372
2017-03-26T06:28:02.877Z,1396
2017-03-26T06:28:43.358Z,1416
2017-03-26T06:29:24.052Z,1432
2017-03-26T06:30:04.576Z,1448
2017-03-26T06:30:45.047Z,1460
2017-03-26T06:31:25.647Z,1480
2017-03-26T06:32:06.144Z,1488
2017-03-26T06:32:46.693Z,1496
2017-03-26T06:33:27.291Z,1508
2017-03-26T06:34:07.901Z,1520
2017-03-26T06:34:48.499Z,1532
2017-03-26T06:35:30.395Z,1544
2017-03-26T06:36:12.735Z,1560
2017-03-26T06:36:55.300Z,1576
2017-03-26T06:37:37.750Z,1596
2017-03-26T06:38:20.015Z,1612
2017-03-26T06:39:02.328Z,1628
2017-03-26T06:39:44.806Z,1644
2017-03-26T06:40:25.604Z,1668
2017-03-26T06:41:06.331Z,1692
2017-03-26T06:41:46.805Z,1720
2017-03-26T06:42:27.410Z,1748
2017-03-26T06:43:07.850Z,1772
2017-03-26T06:43:48.438Z,1788
2017-03-26T06:44:29.017Z,1812
2017-03-26T06:45:09.557Z,1832
2017-03-26T06:45:50.246Z,1856
2017-03-26T06:46:30.791Z,1876
2017-03-26T06:47:11.505Z,1900
2017-03-26T06:47:52.027Z,1932
2017-03-26T06:48:32.606Z,1952
2017-03-26T06:49:13.159Z,1984
2017-03-26T06:49:53.938Z,2012
2017-03-26T06:50:34.511Z,2032
2017-03-26T06:51:15.091Z,2056
2017-03-26T06:51:55.620Z,2080
2017-03-26T06:52:36.196Z,2124
2017-03-26T06:53:16.714Z,2168
2017-03-26T06:53:57.303Z,2216
2017-03-26T06:54:37.892Z,2260
2017-03-26T06:55:18.469Z,2292
2017-03-26T06:55:58.994Z,2312
2017-03-26T06:56:39.468Z,2340
2017-03-26T06:57:20.174Z,2364
2017-03-26T06:58:00.771Z,2392
2017-03-26T06:58:41.399Z,2424
2017-03-26T06:59:22.061Z,2456
2017-03-26T07:00:02.582Z,2480
2017-03-26T07:00:43.123Z,2500
2017-03-26T07:01:23.701Z,2520
2017-03-26T07:02:04.275Z,2548
2017-03-26T07:02:44.836Z,2580
2017-03-26T07:03:25.322Z,2616
2017-03-26T07:04:08.035Z,2656
2017-03-26T07:04:48.770Z,2696
2017-03-26T07:05:29.379Z,2744
2017-03-26T07:06:09.955Z,2800
2017-03-26T07:06:50.628Z,2848
2017-03-26T07:07:31.159Z,2892
2017-03-26T07:08:11.693Z,2952
2017-03-26T07:08:52.262Z,2992
2017-03-26T07:09:33.026Z,3016
2017-03-26T07:10:14.493Z,3028
2017-03-26T07:10:55.039Z,3056
2017-03-26T07:11:35.648Z,3144
2017-03-26T07:12:16.304Z,3192
2017-03-26T07:12:56.869Z,3228
2017-03-26T07:13:37.445Z,3248
2017-03-26T07:14:19.140Z,3260
2017-03-26T07:14:59.705Z,3260
2017-03-26T07:15:40.258Z,3252
2017-03-26T07:16:20.785Z,3256
2017-03-26T07:17:01.298Z,3248
2017-03-26T07:17:41.871Z,3240
2017-03-26T07:18:22.349Z,3228
2017-03-26T07:19:02.908Z,3220
2017-03-26T07:19:43.447Z,3212
2017-03-26T07:20:23.960Z,3212
2017-03-26T07:21:04.472Z,3204
2017-03-26T07:21:45.002Z,3196
2017-03-26T07:22:25.537Z,3220
2017-03-26T07:23:06.098Z,3240
2017-03-26T07:23:46.667Z,3256
2017-03-26T07:24:27.114Z,3276
2017-03-26T07:25:07.705Z,3292
2017-03-26T07:25:48.228Z,3344
2017-03-26T07:26:28.785Z,3384
2017-03-26T07:27:09.418Z,3344
2017-03-26T07:27:49.885Z,3412
2017-03-26T07:28:30.370Z,3420
2017-03-26T07:29:11.193Z,3444
2017-03-26T07:29:52.371Z,3436
2017-03-26T07:30:33.337Z,3388
2017-03-26T07:31:13.983Z,3448
2017-03-26T07:31:54.538Z,3528
2017-03-26T07:32:35.088Z,3532
2017-03-26T07:33:15.744Z,3444
2017-03-26T07:33:56.230Z,3360
2017-03-26T07:34:36.834Z,3432
2017-03-26T07:35:17.528Z,3492
2017-03-26T07:35:58.072Z,3556
2017-03-26T07:36:38.738Z,3624
2017-03-26T07:37:19.288Z,3716
2017-03-26T07:37:59.838Z,3776
2017-03-26T07:38:40.413Z,3788
2017-03-26T07:39:20.988Z,3800
2017-03-26T07:40:01.536Z,3832
2017-03-26T07:40:42.152Z,3888
2017-03-26T07:41:22.697Z,3924
2017-03-26T07:42:03.341Z,3940
2017-03-26T07:42:44.516Z,3940
2017-03-26T07:43:24.754Z,3948
2017-03-26T07:44:05.270Z,3960
2017-03-26T07:44:45.799Z,3992
2017-03-26T07:45:26.427Z,4016
2017-03-26T07:46:06.915Z,4048
2017-03-26T07:46:47.406Z,4084
2017-03-26T07:47:27.923Z,4132
2017-03-26T07:48:08.520Z,4176
2017-03-26T07:48:49.034Z,4224
2017-03-26T07:49:29.614Z,4280
2017-03-26T07:50:10.192Z,4336
2017-03-26T07:50:51.024Z,4388
2017-03-26T07:51:31.690Z,4440
2017-03-26T07:52:12.353Z,4508
2017-03-26T07:52:52.944Z,4552
2017-03-26T07:53:33.595Z,4600
2017-03-26T07:54:14.208Z,4644
2017-03-26T07:54:54.963Z,4724
2017-03-26T07:55:35.476Z,4792
2017-03-26T07:56:16.065Z,4856
2017-03-26T07:56:56.679Z,4884
2017-03-26T07:57:37.299Z,4900
2017-03-26T07:58:18.010Z,4884
2017-03-26T07:58:58.830Z,4904
2017-03-26T07:59:39.389Z,4852
2017-03-26T08:00:19.874Z,4908
2017-03-26T08:01:00.414Z,4824
2017-03-26T08:01:40.997Z,4720
2017-03-26T08:02:21.513Z,4744
2017-03-26T08:03:02.305Z,4532
2017-03-26T08:03:42.923Z,4468
2017-03-26T08:04:23.506Z,4528
2017-03-26T08:05:04.040Z,4508
2017-03-26T08:05:44.622Z,4512
2017-03-26T08:06:25.236Z,4444
2017-03-26T08:07:05.771Z,4504
2017-03-26T08:07:46.431Z,4568
2017-03-26T08:08:27.132Z,4648
2017-03-26T08:09:07.871Z,4724
2017-03-26T08:09:48.476Z,4844
2017-03-26T08:10:29.062Z,5036
2017-03-26T08:11:09.718Z,5176
2017-03-26T08:11:50.442Z,5296
2017-03-26T08:12:31.204Z,5456
2017-03-26T08:13:11.945Z,5440
2017-03-26T08:13:52.424Z,5676
2017-03-26T08:14:33.171Z,5960
2017-03-26T08:15:14.063Z,5960
2017-03-26T08:15:54.964Z,7580
2017-03-26T08:16:37.119Z,12808
2017-03-26T08:17:18.029Z,16544
2017-03-26T08:17:58.737Z,12300
2017-03-26T08:18:39.969Z,9120
2017-03-26T08:19:20.489Z,6852
2017-03-26T08:20:01.070Z,6724
2017-03-26T08:20:41.780Z,6620
2017-03-26T08:21:22.606Z,6064
2017-03-26T08:22:03.341Z,5700
2017-03-26T08:24:28.804Z,6164
2017-03-26T08:25:09.403Z,6988
2017-03-26T08:25:49.919Z,7632
2017-03-26T08:26:30.521Z,7224
2017-03-26T08:27:11.086Z,9860
2017-03-26T08:27:52.037Z,10300
2017-03-26T08:28:32.514Z,8292
2017-03-26T08:29:13.223Z,6300
2017-03-26T08:29:53.798Z,6028
2017-03-26T08:30:34.398Z,6220
2017-03-26T08:31:15.067Z,6320
2017-03-26T08:31:55.706Z,6144
2017-03-26T08:32:36.341Z,5996
2017-03-26T08:33:16.982Z,5912
2017-03-26T08:33:57.866Z,5920
2017-03-26T08:34:38.429Z,5844
2017-03-26T08:35:18.958Z,5856
2017-03-26T08:35:59.529Z,5852
2017-03-26T08:36:40.182Z,5872
2017-03-26T08:37:21.064Z,5892
2017-03-26T08:38:01.643Z,5904
2017-03-26T08:38:42.381Z,5768
2017-03-26T08:39:23.108Z,5828
2017-03-26T08:40:03.964Z,5872
2017-03-26T08:40:44.437Z,6008
2017-03-26T08:41:24.929Z,6304
2017-03-26T08:42:05.549Z,6324
2017-03-26T08:42:46.054Z,6176
2017-03-26T08:43:26.617Z,5984
2017-03-26T08:44:07.142Z,5856
2017-03-26T08:44:47.626Z,5824
2017-03-26T08:45:28.151Z,5740
2017-03-26T08:46:08.723Z,5692
2017-03-26T08:46:49.319Z,5644
2017-03-26T08:47:29.707Z,5588
2017-03-26T08:48:10.273Z,5624
2017-03-26T08:48:50.799Z,5696
2017-03-26T08:49:31.449Z,5756
2017-03-26T08:50:12.301Z,5968
2017-03-26T08:50:53.075Z,6176
2017-03-26T08:51:33.669Z,6152
2017-03-26T08:52:14.255Z,6148
2017-03-26T08:52:54.866Z,6492
2017-03-26T08:53:35.487Z,8252
2017-03-26T08:54:16.032Z,10816
2017-03-26T08:54:56.651Z,11952
2017-03-26T08:55:37.238Z,10164
2017-03-26T08:56:17.812Z,7548
2017-03-26T08:56:58.450Z,8468
2017-03-26T08:57:39.188Z,11360
2017-03-26T08:58:19.683Z,13492
2017-03-26T08:59:00.259Z,11876
2017-03-26T08:59:40.794Z,9280
2017-03-26T09:00:21.312Z,10688
2017-03-26T09:01:01.870Z,18400
2017-03-26T09:01:42.420Z,24256
2017-03-26T09:02:22.889Z,22464
2017-03-26T09:03:03.407Z,16800
2017-03-26T09:03:43.953Z,23456
2017-03-26T09:04:24.493Z,34304
2017-03-26T09:05:04.974Z,38688
2017-03-26T09:05:45.492Z,39456
2017-03-26T09:06:26.029Z,41600
2017-03-26T09:07:06.684Z,44512
2017-03-26T09:07:47.150Z,45664
2017-03-26T09:08:27.764Z,44544
2017-03-26T09:09:08.296Z,43488
2017-03-26T09:09:48.834Z,41376
2017-03-26T09:10:29.297Z,43200
2017-03-26T09:11:09.815Z,47616
2017-03-26T09:11:50.341Z,48832
2017-03-26T09:12:30.835Z,49952
2017-03-26T09:13:11.369Z,49600
2017-03-26T09:13:51.907Z,46304
2017-03-26T09:14:32.429Z,43904
2017-03-26T09:15:12.942Z,42624
2017-03-26T09:15:53.443Z,42816
2017-03-26T09:16:34.019Z,44960
2017-03-26T09:17:14.530Z,46368
2017-03-26T09:17:55.032Z,45952
2017-03-26T09:18:35.555Z,43872
2017-03-26T09:19:16.073Z,42976
2017-03-26T09:19:56.589Z,43936
2017-03-26T09:20:37.134Z,44704
2017-03-26T09:21:17.649Z,39840
2017-03-26T09:21:58.202Z,44640
2017-03-26T09:22:38.867Z,47232
2017-03-26T09:23:19.395Z,50656
2017-03-26T09:23:59.918Z,50656
2017-03-26T09:24:40.539Z,49760
2017-03-26T09:25:20.988Z,50944
2017-03-26T09:26:01.527Z,52224
2017-03-26T09:26:42.052Z,50976
2017-03-26T09:27:22.600Z,49376
2017-03-26T09:28:03.095Z,48064
2017-03-26T09:28:43.612Z,52096
2017-03-26T09:29:24.142Z,52736
2017-03-26T09:30:04.655Z,50784
2017-03-26T09:30:45.196Z,48256
2017-03-26T09:31:25.725Z,50144
2017-03-26T09:32:06.239Z,51488
2017-03-26T09:32:46.779Z,51392
2017-03-26T09:33:27.294Z,51072
2017-03-26T09:34:07.810Z,51488
2017-03-26T09:34:48.351Z,53888
2017-03-26T09:35:28.875Z,54816